Time;durP1;ratioP1;P1;durP2;ratioP2;P2;SDS_P1;SDS_P2;PMS_P1;PMS_P2;Temp;Humidity;BMP_temperature;BMP_pressure;BME280_temperature;BME280_humidity;BME280_pressure;Samples;Min_cycle;Max_cycle;Signal;HPM_P1;HPM_P2
2023/06/22 00:02:18;;;;;;;3.70;2.30;;;25.60;70.90;;;;;;5029393;28;20710;-74
2023/06/22 00:04:44;;;;;;;2.60;2.17;;;25.60;70.20;;;;;;5012043;28;20945;-74
2023/06/22 00:07:10;;;;;;;2.50;2.10;;;25.60;70.30;;;;;;5012087;28;20632;-75
2023/06/22 00:09:36;;;;;;;7.07;2.00;;;25.60;70.40;;;;;;4995609;28;20621;-74
2023/06/22 00:12:02;;;;;;;3.07;2.07;;;25.60;70.60;;;;;;5011029;28;20598;-74
2023/06/22 00:14:28;;;;;;;4.00;2.20;;;25.50;70.60;;;;;;4995779;28;20623;-74
2023/06/22 00:16:55;;;;;;;3.77;2.30;;;25.50;70.80;;;;;;5029578;28;20627;-74
2023/06/22 00:19:23;;;;;;;4.13;2.40;;;25.50;70.80;;;;;;5012262;28;20181;-75
2023/06/22 00:21:53;;;;;;;2.27;1.70;;;25.50;71.00;;;;;;4994825;28;21007;-74
2023/06/22 00:24:22;;;;;;;3.87;2.60;;;25.50;71.10;;;;;;5012281;28;20576;-74
2023/06/22 00:26:48;;;;;;;3.40;2.10;;;25.50;71.30;;;;;;5011330;28;20670;-74
2023/06/22 00:29:15;;;;;;;3.30;1.90;;;25.50;71.30;;;;;;5029897;28;20584;-74
2023/06/22 00:31:41;;;;;;;2.97;2.47;;;25.50;71.40;;;;;;4994756;28;20600;-74
2023/06/22 00:34:08;;;;;;;2.60;1.93;;;25.50;71.40;;;;;;5011937;28;20712;-74
2023/06/22 00:36:35;;;;;;;3.20;2.30;;;25.50;71.70;;;;;;5012241;28;20177;-75
2023/06/22 00:39:03;;;;;;;2.97;2.17;;;25.50;71.80;;;;;;4995368;28;20635;-74
2023/06/22 00:41:29;;;;;;;3.10;2.07;;;25.50;72.00;;;;;;5010422;28;20635;-74
2023/06/22 00:43:55;;;;;;;3.27;2.17;;;25.50;72.10;;;;;;5029320;28;21009;-74
2023/06/22 00:46:22;;;;;;;3.10;2.33;;;25.50;72.30;;;;;;4995744;28;20177;-74
2023/06/22 00:48:49;;;;;;;3.10;1.90;;;25.50;72.50;;;;;;5011917;28;20205;-74
2023/06/22 00:51:14;;;;;;;3.07;1.80;;;25.50;72.70;;;;;;5010727;28;20633;-74
2023/06/22 00:53:41;;;;;;;3.30;2.27;;;25.50;72.90;;;;;;5029511;28;20572;-75
2023/06/22 00:56:08;;;;;;;3.30;1.93;;;25.50;73.30;;;;;;5011283;28;20178;-74
2023/06/22 00:58:36;;;;;;;3.00;2.30;;;25.40;73.30;;;;;;4979483;28;20703;-74
2023/06/22 01:01:02;;;;;;;10.43;2.07;;;25.40;73.50;;;;;;5010079;28;20601;-74
2023/06/22 01:03:28;;;;;;;2.67;1.90;;;25.40;73.60;;;;;;5019683;28;21276;-74
2023/06/22 01:06:02;;;;;;;3.30;2.50;;;25.40;73.70;;;;;;5019262;28;20177;-75
2023/06/22 01:08:52;;;;;;;2.93;2.10;;;25.40;74.20;;;;;;5010970;28;20640;-74
2023/06/22 01:11:38;;;;;;;2.40;2.00;;;25.40;74.20;;;;;;5010905;28;20589;-75
2023/06/22 01:14:10;;;;;;;3.50;2.30;;;25.40;74.30;;;;;;5028196;28;20580;-74
2023/06/22 01:16:41;;;;;;;4.10;2.17;;;25.40;74.60;;;;;;4994988;28;21022;-74
2023/06/22 01:19:32;;;;;;;3.63;2.30;;;25.40;74.70;;;;;;5010963;28;20739;-74
2023/06/22 01:22:00;;;;;;;3.50;2.60;;;25.30;75.00;;;;;;4988381;28;20687;-74
2023/06/22 01:24:48;;;;;;;2.87;2.10;;;25.30;74.60;;;;;;4978457;28;21139;-75
2023/06/22 01:27:36;;;;;;;3.40;2.80;;;25.30;75.10;;;;;;4973674;28;20640;-74
2023/06/22 01:30:05;;;;;;;3.57;1.90;;;25.30;75.20;;;;;;5010236;28;21126;-74
2023/06/22 01:32:35;;;;;;;2.60;2.40;;;25.30;75.00;;;;;;4994696;28;20683;-75
2023/06/22 01:35:05;;;;;;;2.40;2.00;;;25.30;75.20;;;;;;5011116;28;20604;-75
2023/06/22 01:37:32;;;;;;;2.43;1.70;;;25.30;75.40;;;;;;5011536;28;20652;-74
2023/06/22 01:39:59;;;;;;;2.80;2.33;;;25.20;75.50;;;;;;4994908;28;21155;-75
2023/06/22 01:42:25;;;;;;;2.90;1.90;;;25.30;75.60;;;;;;5011009;28;20635;-74
2023/06/22 01:44:55;;;;;;;2.80;2.20;;;25.30;75.80;;;;;;4994784;28;20588;-75
2023/06/22 01:47:22;;;;;;;2.90;2.23;;;25.20;75.90;;;;;;4994655;28;20608;-74
2023/06/22 01:49:51;;;;;;;2.80;2.30;;;25.20;75.90;;;;;;5011709;28;20580;-75
2023/06/22 01:52:18;;;;;;;4.87;2.60;;;25.20;75.90;;;;;;4994155;28;21153;-75
2023/06/22 01:54:43;;;;;;;4.90;2.20;;;25.20;76.00;;;;;;5014336;28;20603;-75
2023/06/22 01:57:10;;;;;;;4.03;2.20;;;25.20;76.20;;;;;;4982495;28;20995;-75
2023/06/22 02:00:04;;;;;;;2.37;1.50;;;25.20;76.50;;;;;;4982645;28;20178;-75
2023/06/22 02:02:51;;;;;;;3.90;2.10;;;25.20;76.60;;;;;;5032453;28;20734;-75
2023/06/22 02:05:19;;;;;;;3.43;1.90;;;25.20;76.70;;;;;;5014558;28;21406;-75
2023/06/22 02:08:00;;;;;;;2.20;1.87;;;25.20;76.70;;;;;;5014281;28;20647;-75
2023/06/22 02:10:31;;;;;;;2.97;2.00;;;25.10;76.80;;;;;;5014037;28;21020;-75
2023/06/22 02:12:58;;;;;;;2.60;2.10;;;25.20;76.80;;;;;;4998258;28;20726;-75
2023/06/22 02:15:25;;;;;;;2.80;2.00;;;25.10;77.00;;;;;;4998061;28;20594;-75
2023/06/22 02:17:54;;;;;;;2.80;2.10;;;25.10;77.20;;;;;;4982172;28;20635;-75
2023/06/22 02:20:20;;;;;;;4.67;2.30;;;25.10;77.40;;;;;;4997509;28;20631;-75
2023/06/22 02:22:46;;;;;;;2.80;2.00;;;25.10;77.60;;;;;;4997730;28;21199;-74
2023/06/22 02:25:12;;;;;;;3.00;1.97;;;25.10;77.60;;;;;;5014483;28;20189;-75
2023/06/22 02:27:40;;;;;;;3.13;2.23;;;25.10;77.70;;;;;;5013846;28;20669;-75
2023/06/22 02:30:08;;;;;;;3.13;2.50;;;25.10;77.90;;;;;;5013999;28;20257;-75
2023/06/22 02:32:34;;;;;;;3.43;2.33;;;25.10;78.10;;;;;;5031482;28;20581;-75
2023/06/22 02:34:59;;;;;;;3.47;2.17;;;25.10;78.20;;;;;;5014101;28;20663;-75
2023/06/22 02:37:29;;;;;;;3.13;2.10;;;25.10;78.20;;;;;;5013801;28;20204;-75
2023/06/22 02:39:55;;;;;;;2.60;1.80;;;25.00;78.40;;;;;;4998021;28;20178;-75
2023/06/22 02:42:21;;;;;;;2.50;2.00;;;25.00;78.50;;;;;;5013552;28;20640;-75
2023/06/22 02:44:48;;;;;;;3.30;2.20;;;25.00;78.70;;;;;;5013804;28;20261;-75
2023/06/22 02:47:15;;;;;;;4.37;1.97;;;25.00;78.90;;;;;;5013630;28;21238;-75
2023/06/22 02:49:41;;;;;;;4.00;2.50;;;25.00;79.20;;;;;;4996656;28;20649;-75
2023/06/22 02:52:07;;;;;;;3.33;2.10;;;24.90;79.40;;;;;;4996069;28;20650;-75
2023/06/22 02:54:34;;;;;;;3.60;2.10;;;24.90;79.40;;;;;;4980367;28;20624;-75
2023/06/22 02:57:02;;;;;;;2.37;2.00;;;24.90;79.60;;;;;;5013271;28;20635;-75
2023/06/22 02:59:29;;;;;;;3.33;3.00;;;24.90;79.80;;;;;;4997283;28;20285;-75
2023/06/22 03:02:02;;;;;;;2.73;1.90;;;24.90;80.00;;;;;;5012316;28;21013;-74
2023/06/22 03:04:31;;;;;;;2.57;1.67;;;24.80;80.10;;;;;;4996402;28;20650;-75
2023/06/22 03:07:01;;;;;;;3.13;2.07;;;24.80;80.50;;;;;;4995954;28;20659;-75
2023/06/22 03:09:29;;;;;;;4.17;2.50;;;24.80;80.90;;;;;;4996937;28;20602;-73
2023/06/22 03:11:56;;;;;;;3.30;2.10;;;24.70;81.00;;;;;;4996032;28;20967;-74
2023/06/22 03:14:25;;;;;;;2.50;2.03;;;24.70;81.20;;;;;;4997153;28;20597;-73
2023/06/22 03:16:52;;;;;;;3.00;2.20;;;24.70;81.40;;;;;;4997280;28;20585;-74
2023/06/22 03:19:21;;;;;;;4.80;2.07;;;24.60;81.60;;;;;;5013088;28;20608;-73
2023/06/22 03:21:47;;;;;;;2.90;1.60;;;24.60;81.90;;;;;;4979843;28;20821;-74
2023/06/22 03:24:12;;;;;;;4.50;2.60;;;24.60;82.40;;;;;;5030879;28;20618;-73
2023/06/22 03:26:38;;;;;;;3.30;2.40;;;24.60;82.60;;;;;;5013751;28;20519;-74
2023/06/22 03:29:04;;;;;;;3.37;2.20;;;24.60;82.80;;;;;;4996051;28;20204;-74
2023/06/22 03:31:30;;;;;;;2.60;2.20;;;24.60;83.00;;;;;;5011977;28;20315;-74
2023/06/22 03:33:57;;;;;;;3.40;1.80;;;24.60;83.20;;;;;;4996579;28;20601;-73
2023/06/22 03:36:23;;;;;;;3.30;1.67;;;24.60;84.20;;;;;;5012572;28;20595;-74
2023/06/22 03:38:50;;;;;;;4.37;2.10;;;24.60;83.50;;;;;;4996642;28;20247;-73
2023/06/22 03:41:16;;;;;;;3.40;2.40;;;24.60;83.80;;;;;;4995710;28;20650;-74
2023/06/22 03:43:42;;;;;;;3.10;2.07;;;24.60;83.90;;;;;;5013154;28;20585;-74
2023/06/22 03:46:08;;;;;;;2.37;1.73;;;24.60;84.00;;;;;;4980581;28;20580;-74
2023/06/22 03:48:34;;;;;;;3.47;2.17;;;24.60;84.10;;;;;;5012705;28;20608;-74
2023/06/22 03:51:01;;;;;;;3.70;1.80;;;24.60;84.40;;;;;;4996252;28;20189;-74
2023/06/22 03:53:27;;;;;;;3.40;2.33;;;24.60;84.50;;;;;;5012128;28;20189;-74
2023/06/22 03:55:53;;;;;;;3.60;2.20;;;24.60;84.70;;;;;;5013114;28;20588;-74
2023/06/22 03:58:20;;;;;;;4.10;2.20;;;24.60;84.80;;;;;;5029905;28;20742;-74
2023/06/22 04:00:50;;;;;;;2.50;2.00;;;24.60;85.00;;;;;;5012366;28;20185;-74
2023/06/22 04:03:18;;;;;;;2.00;1.60;;;24.60;85.20;;;;;;5011944;28;21018;-74
2023/06/22 04:05:44;;;;;;;3.40;2.30;;;24.60;85.20;;;;;;5012691;28;20696;-73
2023/06/22 04:08:12;;;;;;;2.50;1.87;;;24.60;85.40;;;;;;5030098;28;20635;-73
2023/06/22 04:10:38;;;;;;;3.17;1.67;;;24.70;85.90;;;;;;5012086;28;20651;-73
2023/06/22 04:13:04;;;;;;;4.50;2.60;;;24.70;85.90;;;;;;5012192;28;20588;-73
2023/06/22 04:15:29;;;;;;;3.40;2.33;;;24.60;86.20;;;;;;5011572;28;20545;-73
2023/06/22 04:17:56;;;;;;;2.43;2.23;;;24.70;86.50;;;;;;5011072;28;20204;-73
2023/06/22 04:20:22;;;;;;;3.47;2.53;;;24.70;86.70;;;;;;5011591;28;20204;-74
2023/06/22 04:22:48;;;;;;;4.30;3.07;;;24.70;87.00;;;;;;4995663;28;20652;-73
2023/06/22 04:25:14;;;;;;;4.07;3.00;;;24.80;87.20;;;;;;4995251;28;20599;-73
2023/06/22 04:27:42;;;;;;;2.63;2.03;;;24.80;87.30;;;;;;5029501;28;20669;-74
2023/06/22 04:30:08;;;;;;;3.60;3.00;;;24.90;87.50;;;;;;5029403;28;20675;-74
2023/06/22 04:32:38;;;;;;;3.00;2.67;;;24.90;87.60;;;;;;5011379;28;20679;-73
2023/06/22 04:35:06;;;;;;;3.90;2.90;;;25.00;87.90;;;;;;5011869;28;20592;-73
2023/06/22 04:37:33;;;;;;;3.00;2.70;;;25.00;88.10;;;;;;5011901;28;20624;-74
2023/06/22 04:39:59;;;;;;;4.70;2.90;;;25.10;88.20;;;;;;4995618;28;20592;-73
2023/06/22 04:42:28;;;;;;;3.87;3.03;;;25.10;88.40;;;;;;5029139;28;20634;-74
2023/06/22 04:44:54;;;;;;;4.10;3.50;;;25.10;88.80;;;;;;5029685;28;20609;-73
2023/06/22 04:47:20;;;;;;;4.43;4.10;;;25.10;88.90;;;;;;5011900;28;20667;-73
2023/06/22 04:49:46;;;;;;;4.87;4.37;;;25.20;89.50;;;;;;4995766;28;21219;-73
2023/06/22 04:52:13;;;;;;;5.20;4.70;;;25.10;89.60;;;;;;5028972;28;20599;-73
2023/06/22 04:54:47;;;;;;;4.57;4.07;;;25.10;90.20;;;;;;5011876;28;20603;-73
2023/06/22 04:57:13;;;;;;;4.43;4.00;;;25.10;90.30;;;;;;5012129;28;20697;-73
2023/06/22 04:59:41;;;;;;;4.83;4.33;;;25.10;90.60;;;;;;5011804;28;20932;-74
2023/06/22 05:02:07;;;;;;;5.20;4.63;;;25.10;90.80;;;;;;4994773;28;20651;-74
2023/06/22 05:04:35;;;;;;;4.73;4.33;;;25.10;91.00;;;;;;5029386;28;20789;-74
2023/06/22 05:07:02;;;;;;;4.87;4.40;;;25.10;91.20;;;;;;5011745;28;21128;-73
2023/06/22 05:09:29;;;;;;;4.80;4.40;;;25.10;91.30;;;;;;5029655;28;20588;-74
2023/06/22 05:11:56;;;;;;;7.13;4.90;;;25.10;91.50;;;;;;5028022;28;20903;-74
2023/06/22 05:14:22;;;;;;;6.67;4.70;;;25.20;91.80;;;;;;5029202;28;21416;-73
2023/06/22 05:16:51;;;;;;;6.73;4.67;;;25.10;91.90;;;;;;5010975;28;20600;-74
2023/06/22 05:19:17;;;;;;;5.97;5.43;;;25.20;92.20;;;;;;5011722;28;20595;-74
2023/06/22 05:21:43;;;;;;;5.60;5.10;;;25.20;92.60;;;;;;5010663;28;20971;-74
2023/06/22 05:24:08;;;;;;;6.10;5.50;;;25.20;92.70;;;;;;5029014;28;20177;-74
2023/06/22 05:26:34;;;;;;;5.47;4.97;;;25.20;93.00;;;;;;5028969;28;20663;-74
2023/06/22 05:29:02;;;;;;;5.73;5.27;;;25.30;93.30;;;;;;4998604;28;20665;-74
2023/06/22 05:31:28;;;;;;;7.27;4.70;;;25.30;93.50;;;;;;5032312;28;20596;-74
2023/06/22 05:33:55;;;;;;;4.73;4.33;;;25.30;93.60;;;;;;5033022;28;20572;-74
2023/06/22 05:36:24;;;;;;;4.87;4.47;;;25.40;93.80;;;;;;4999193;28;20584;-74
2023/06/22 05:38:51;;;;;;;7.00;4.97;;;25.40;93.90;;;;;;5032645;28;20616;-75
2023/06/22 05:41:17;;;;;;;5.10;4.60;;;25.50;94.30;;;;;;4998165;28;20596;-75
2023/06/22 05:43:42;;;;;;;5.60;5.10;;;25.50;94.30;;;;;;5014804;28;21161;-75
2023/06/22 05:46:08;;;;;;;7.90;5.43;;;25.60;94.40;;;;;;4999006;28;20950;-75
2023/06/22 05:48:34;;;;;;;6.17;5.57;;;25.70;94.50;;;;;;5033183;28;20190;-74
2023/06/22 05:51:00;;;;;;;6.23;5.27;;;25.70;94.60;;;;;;5014242;28;20571;-74
2023/06/22 05:53:27;;;;;;;5.93;5.00;;;25.90;95.10;;;;;;5014982;28;20188;-74
2023/06/22 05:55:52;;;;;;;9.30;5.80;;;26.00;94.90;;;;;;5014744;28;20584;-74
2023/06/22 05:58:18;;;;;;;5.50;5.10;;;26.00;94.90;;;;;;5014919;28;20635;-74
2023/06/22 06:00:44;;;;;;;5.73;5.27;;;26.20;95.40;;;;;;5031865;28;20177;-75
2023/06/22 06:03:10;;;;;;;6.00;5.50;;;26.30;95.20;;;;;;5032277;28;20628;-75
2023/06/22 06:05:37;;;;;;;7.80;5.07;;;26.80;95.80;;;;;;5032439;28;20173;-75
2023/06/22 06:08:05;;;;;;;5.97;4.97;;;27.20;95.80;;;;;;5032240;28;20615;-75
2023/06/22 06:10:32;;;;;;;7.00;4.70;;;27.70;95.70;;;;;;5014507;28;20584;-75
2023/06/22 06:12:58;;;;;;;5.00;4.50;;;28.50;95.90;;;;;;5032586;28;20661;-75
2023/06/22 06:15:23;;;;;;;4.77;4.37;;;29.20;95.50;;;;;;5014660;28;20580;-75
2023/06/22 06:17:53;;;;;;;4.60;4.20;;;29.70;94.70;;;;;;4997643;28;20627;-75
2023/06/22 06:20:23;;;;;;;4.83;3.90;;;30.10;93.00;;;;;;5013757;28;20197;-75
2023/06/22 06:22:49;;;;;;;5.70;3.83;;;30.40;92.50;;;;;;5013824;28;20628;-75
2023/06/22 06:25:18;;;;;;;5.77;4.20;;;30.50;91.40;;;;;;5014618;28;20592;-75
2023/06/22 06:27:45;;;;;;;5.17;4.67;;;30.50;91.10;;;;;;5014128;28;21070;-75
2023/06/22 06:30:12;;;;;;;5.30;4.80;;;30.50;90.70;;;;;;5015127;28;20603;-76
2023/06/22 06:32:39;;;;;;;4.70;4.17;;;30.50;90.60;;;;;;5017346;28;20592;-77
2023/06/22 06:35:06;;;;;;;5.20;4.70;;;30.50;89.80;;;;;;5032030;28;20662;-76
2023/06/22 06:37:37;;;;;;;5.50;4.47;;;30.30;89.60;;;;;;4997935;28;20604;-77
2023/06/22 06:40:06;;;;;;;4.80;4.40;;;30.20;90.10;;;;;;5012358;28;20598;-76
2023/06/22 06:42:32;;;;;;;4.83;4.40;;;30.50;90.50;;;;;;5031942;28;20632;-77
2023/06/22 06:44:57;;;;;;;4.50;4.10;;;30.70;90.60;;;;;;5014401;28;20579;-77
2023/06/22 06:47:23;;;;;;;5.13;4.63;;;30.90;90.30;;;;;;5014477;28;20198;-77
2023/06/22 06:49:49;;;;;;;4.87;4.40;;;31.00;90.00;;;;;;5001350;28;20208;-76
2023/06/22 06:52:14;;;;;;;6.00;4.30;;;31.10;89.60;;;;;;4995928;28;20626;-76
2023/06/22 06:54:41;;;;;;;4.07;3.77;;;31.30;89.40;;;;;;5032030;28;20170;-76
2023/06/22 06:57:10;;;;;;;5.43;4.93;;;31.60;89.30;;;;;;5016951;28;20200;-77
2023/06/22 06:59:36;;;;;;;4.20;3.80;;;31.80;88.60;;;;;;5020544;28;20589;-77
2023/06/22 07:02:02;;;;;;;4.87;4.47;;;31.80;87.40;;;;;;5014216;28;20682;-77
2023/06/22 07:04:27;;;;;;;4.10;3.70;;;31.90;86.50;;;;;;5013027;28;20264;-76
2023/06/22 07:06:53;;;;;;;5.13;4.33;;;31.80;86.00;;;;;;5032528;28;20189;-76
2023/06/22 07:09:19;;;;;;;8.77;4.80;;;31.80;85.30;;;;;;5013877;28;20204;-76
2023/06/22 07:11:44;;;;;;;4.33;3.93;;;31.70;85.10;;;;;;5012436;28;20179;-76
2023/06/22 07:14:10;;;;;;;6.70;4.77;;;31.50;84.80;;;;;;5015844;28;20178;-76
2023/06/22 07:16:36;;;;;;;4.00;3.57;;;31.50;84.80;;;;;;4996720;28;20274;-76
2023/06/22 07:19:01;;;;;;;5.30;4.07;;;31.60;85.80;;;;;;5012743;28;20201;-76
2023/06/22 07:21:27;;;;;;;4.80;4.40;;;32.00;87.40;;;;;;5030320;28;20205;-76
2023/06/22 07:23:54;;;;;;;4.63;4.23;;;32.60;87.70;;;;;;5014046;28;20646;-76
2023/06/22 07:26:19;;;;;;;6.40;4.43;;;33.30;88.60;;;;;;4998133;28;20251;-76
2023/06/22 07:28:45;;;;;;;4.50;3.80;;;34.00;86.70;;;;;;4996920;28;20668;-76
2023/06/22 07:31:11;;;;;;;5.43;4.10;;;34.70;86.00;;;;;;5029619;28;20178;-76
2023/06/22 07:33:36;;;;;;;5.33;4.83;;;35.10;83.60;;;;;;4997848;28;20180;-77
2023/06/22 07:36:07;;;;;;;4.10;3.70;;;35.60;79.20;;;;;;5033390;28;20622;-76
2023/06/22 07:38:33;;;;;;;4.77;4.03;;;36.10;79.00;;;;;;5016778;28;20201;-76
2023/06/22 07:40:59;;;;;;;4.00;3.70;;;36.30;74.90;;;;;;5013343;28;20599;-77
2023/06/22 07:43:25;;;;;;;4.50;4.10;;;36.30;73.10;;;;;;4996655;28;21270;-76
2023/06/22 07:45:54;;;;;;;4.93;4.00;;;36.10;69.90;;;;;;4997008;28;20173;-76
2023/06/22 07:48:23;;;;;;;4.43;4.10;;;36.00;69.00;;;;;;4996883;28;20197;-76
2023/06/22 07:50:49;;;;;;;4.30;3.90;;;35.70;65.30;;;;;;4995682;28;20598;-76
2023/06/22 07:53:15;;;;;;;5.20;4.47;;;35.60;67.10;;;;;;5013380;28;20598;-76
2023/06/22 07:55:41;;;;;;;4.33;3.93;;;35.70;67.70;;;;;;5031775;28;21123;-77
2023/06/22 07:58:06;;;;;;;5.20;4.20;;;36.10;68.30;;;;;;5031988;28;21074;-76
2023/06/22 08:00:33;;;;;;;4.37;3.97;;;36.50;67.80;;;;;;5014731;28;20182;-76
2023/06/22 08:03:03;;;;;;;4.30;3.90;;;37.10;68.40;;;;;;5013910;28;20680;-75
2023/06/22 08:05:29;;;;;;;4.30;3.90;;;37.80;67.80;;;;;;5013943;28;20623;-75
2023/06/22 08:07:55;;;;;;;4.80;4.30;;;38.40;65.20;;;;;;5012999;28;20627;-75
2023/06/22 08:10:21;;;;;;;3.57;3.27;;;38.90;63.50;;;;;;5013401;28;20584;-74
2023/06/22 08:12:47;;;;;;;3.67;3.37;;;39.50;62.90;;;;;;5032923;28;20619;-75
2023/06/22 08:15:13;;;;;;;3.70;3.13;;;40.10;60.90;;;;;;5029715;28;20185;-74
2023/06/22 08:17:39;;;;;;;3.53;3.23;;;40.70;59.60;;;;;;4996039;28;20246;-75
2023/06/22 08:20:09;;;;;;;4.37;3.70;;;41.10;57.70;;;;;;4995364;28;20170;-75
2023/06/22 08:22:36;;;;;;;3.70;3.40;;;41.50;55.40;;;;;;5011928;28;20698;-75
2023/06/22 08:25:03;;;;;;;4.00;3.60;;;41.90;55.10;;;;;;5029769;28;20616;-75
2023/06/22 08:27:31;;;;;;;4.30;3.10;;;42.20;53.70;;;;;;5030044;28;20715;-74
2023/06/22 08:29:58;;;;;;;3.97;3.67;;;42.60;53.00;;;;;;5011855;28;20579;-75
2023/06/22 08:32:28;;;;;;;3.57;3.27;;;43.00;52.20;;;;;;5015203;28;21431;-77
2023/06/22 08:34:55;;;;;;;3.80;3.40;;;43.30;50.60;;;;;;5012876;28;20953;-76
2023/06/22 08:37:23;;;;;;;3.43;3.13;;;43.30;49.40;;;;;;5014125;28;20608;-78
2023/06/22 08:39:50;;;;;;;4.03;3.73;;;43.20;48.50;;;;;;5011981;28;20570;-77
2023/06/22 08:42:16;;;;;;;3.80;3.47;;;43.00;47.50;;;;;;4994261;28;20620;-77
2023/06/22 08:44:42;;;;;;;3.50;3.20;;;42.80;47.90;;;;;;5028195;28;20665;-78
2023/06/22 08:47:07;;;;;;;4.40;3.33;;;42.70;47.60;;;;;;4993627;28;20679;-77
2023/06/22 08:49:33;;;;;;;3.20;2.90;;;42.50;46.90;;;;;;5010860;28;20261;-77
2023/06/22 08:51:59;;;;;;;4.07;3.67;;;42.40;46.90;;;;;;5009754;28;20230;-77
2023/06/22 08:54:24;;;;;;;4.20;3.90;;;42.20;46.50;;;;;;5010843;28;20541;-78
2023/06/22 08:56:50;;;;;;;3.17;2.90;;;42.10;46.50;;;;;;5011478;28;20212;-78
2023/06/22 08:59:16;;;;;;;5.20;3.90;;;42.00;46.40;;;;;;5029539;28;20767;-77
2023/06/22 09:01:45;;;;;;;4.93;4.27;;;41.90;45.40;;;;;;5011823;28;20210;-77
2023/06/22 09:04:11;;;;;;;4.13;3.80;;;41.30;45.00;;;;;;5015548;28;20300;-77
2023/06/22 09:06:44;;;;;;;5.27;4.53;;;40.90;45.50;;;;;;5015786;28;20583;-77
2023/06/22 09:09:11;;;;;;;4.40;4.00;;;40.60;45.20;;;;;;4998466;28;20696;-77
2023/06/22 09:11:36;;;;;;;4.27;3.87;;;40.30;46.10;;;;;;5015342;28;21075;-77
2023/06/22 09:14:03;;;;;;;3.57;3.27;;;40.10;46.50;;;;;;5003853;28;20682;-77
2023/06/22 09:16:29;;;;;;;4.53;4.20;;;40.00;47.00;;;;;;5016338;28;20256;-77
2023/06/22 09:18:55;;;;;;;4.30;3.90;;;39.80;46.40;;;;;;4999577;28;21022;-77
2023/06/22 09:21:21;;;;;;;3.47;3.17;;;39.60;46.60;;;;;;5014818;28;20565;-77
2023/06/22 09:23:50;;;;;;;4.40;4.00;;;39.40;46.90;;;;;;4983515;28;20647;-77
2023/06/22 09:26:17;;;;;;;3.73;3.40;;;39.30;47.40;;;;;;5015363;28;20188;-77
2023/06/22 09:28:43;;;;;;;5.03;3.90;;;39.20;47.10;;;;;;5033332;28;20627;-77
2023/06/22 09:31:09;;;;;;;4.13;3.73;;;39.00;47.30;;;;;;4998623;28;20948;-78
2023/06/22 09:33:39;;;;;;;3.53;3.23;;;38.80;46.90;;;;;;5034000;28;20576;-77
2023/06/22 09:36:07;;;;;;;4.20;3.80;;;38.60;46.80;;;;;;5015119;28;20595;-77
2023/06/22 09:38:39;;;;;;;3.73;3.43;;;38.20;46.70;;;;;;5016055;28;20666;-77
2023/06/22 09:41:05;;;;;;;4.67;4.27;;;37.80;46.90;;;;;;5014892;28;20588;-78
2023/06/22 09:43:32;;;;;;;5.00;4.50;;;37.30;47.20;;;;;;4999222;28;20630;-78
2023/06/22 09:45:58;;;;;;;5.93;3.60;;;36.80;47.30;;;;;;4999479;28;21169;-78
2023/06/22 09:48:23;;;;;;;7.50;3.97;;;36.60;48.30;;;;;;5015744;28;20620;-78
2023/06/22 09:50:49;;;;;;;8.47;3.53;;;36.60;48.90;;;;;;5002481;28;20177;-78
2023/06/22 09:53:15;;;;;;;4.50;4.10;;;36.70;49.60;;;;;;5015066;28;20598;-78
2023/06/22 09:55:41;;;;;;;5.90;3.67;;;36.70;49.10;;;;;;4999124;28;20205;-78
2023/06/22 09:58:06;;;;;;;5.33;4.93;;;36.60;49.30;;;;;;5032829;28;20198;-78
2023/06/22 10:00:32;;;;;;;5.50;4.80;;;36.50;49.10;;;;;;5032918;28;20177;-78
2023/06/22 10:02:58;;;;;;;3.93;3.63;;;36.20;48.70;;;;;;5014836;28;20310;-78
2023/06/22 10:05:24;;;;;;;8.33;4.23;;;35.80;48.70;;;;;;5014823;28;20173;-78
2023/06/22 10:07:50;;;;;;;4.60;3.97;;;35.50;49.00;;;;;;4997943;28;20204;-78
2023/06/22 10:10:16;;;;;;;4.27;3.87;;;35.10;49.20;;;;;;5014761;28;21619;-78
2023/06/22 10:12:48;;;;;;;5.03;4.50;;;34.60;49.60;;;;;;5032759;28;20589;-78
2023/06/22 10:15:15;;;;;;;4.40;4.00;;;34.10;50.40;;;;;;5013719;28;20582;-78
2023/06/22 10:17:41;;;;;;;4.63;4.00;;;33.70;50.30;;;;;;4997845;28;20661;-78
2023/06/22 10:20:13;;;;;;;5.97;4.47;;;33.30;50.70;;;;;;4997546;28;20965;-77
2023/06/22 10:22:41;;;;;;;5.20;4.17;;;32.90;51.30;;;;;;5032606;28;20198;-77
2023/06/22 10:25:07;;;;;;;6.80;4.30;;;32.40;51.90;;;;;;5035285;28;20599;-78
2023/06/22 10:27:33;;;;;;;4.53;3.67;;;32.10;52.50;;;;;;5015654;28;20615;-77
2023/06/22 10:29:58;;;;;;;4.80;4.30;;;31.90;53.50;;;;;;5013995;28;21135;-78
2023/06/22 10:32:24;;;;;;;6.57;5.10;;;31.50;54.30;;;;;;5014372;28;20173;-77
2023/06/22 10:34:50;;;;;;;4.67;4.00;;;31.20;55.30;;;;;;5014449;28;20687;-77
2023/06/22 10:37:15;;;;;;;6.13;4.13;;;30.80;56.30;;;;;;5014499;28;20193;-77
2023/06/22 10:39:41;;;;;;;6.17;5.40;;;30.50;57.10;;;;;;4998463;28;20262;-77
2023/06/22 10:42:07;;;;;;;6.20;4.90;;;30.20;57.60;;;;;;5013329;28;20678;-77
2023/06/22 10:44:33;;;;;;;7.80;5.67;;;29.90;58.70;;;;;;5032334;28;20175;-77
2023/06/22 10:46:59;;;;;;;6.73;6.00;;;29.60;59.90;;;;;;5013972;28;20577;-77
2023/06/22 10:49:24;;;;;;;7.13;6.43;;;29.30;61.40;;;;;;5014246;28;21084;-77
2023/06/22 10:51:50;;;;;;;8.07;6.67;;;29.00;63.50;;;;;;4997570;28;20537;-77
2023/06/22 10:54:18;;;;;;;7.03;6.33;;;28.70;64.90;;;;;;5020871;28;20211;-76
2023/06/22 10:56:43;;;;;;;6.67;5.97;;;28.30;67.80;;;;;;4998041;28;20610;-77
2023/06/22 10:59:09;;;;;;;7.60;5.73;;;28.00;70.90;;;;;;5014923;28;20631;-77
2023/06/22 11:01:35;;;;;;;7.80;7.00;;;27.70;75.00;;;;;;5012805;28;20196;-77
2023/06/22 11:04:01;;;;;;;6.93;6.23;;;27.50;79.00;;;;;;5014331;28;20288;-77
2023/06/22 11:06:27;;;;;;;6.90;6.20;;;27.30;82.30;;;;;;5031918;28;20607;-76
2023/06/22 11:08:53;;;;;;;7.57;6.27;;;27.10;85.40;;;;;;4997307;28;20205;-77
2023/06/22 11:11:18;;;;;;;12.37;8.47;;;26.90;88.80;;;;;;4981087;28;20687;-77
2023/06/22 11:13:44;;;;;;;10.13;8.00;;;26.60;91.00;;;;;;5013923;28;20269;-77
2023/06/22 11:16:10;;;;;;;7.50;6.57;;;26.40;92.30;;;;;;5031649;28;20239;-77
2023/06/22 11:18:36;;;;;;;9.07;8.17;;;26.20;93.50;;;;;;5013265;28;20212;-77
2023/06/22 11:21:04;;;;;;;8.70;7.90;;;26.00;95.00;;;;;;4996868;28;20572;-77
2023/06/22 11:23:30;;;;;;;8.17;7.37;;;25.80;96.70;;;;;;5031706;28;20981;-77
2023/06/22 11:25:56;;;;;;;8.27;7.47;;;25.70;97.70;;;;;;5013668;28;20580;-78
2023/06/22 11:28:22;;;;;;;8.43;7.60;;;25.70;99.20;;;;;;5013184;28;20186;-78
2023/06/22 11:30:47;;;;;;;9.07;8.00;;;25.60;99.90;;;;;;5013279;28;20537;-78
2023/06/22 11:33:13;;;;;;;8.73;7.40;;;25.70;99.90;;;;;;5013590;28;20177;-78
2023/06/22 11:35:39;;;;;;;7.77;6.87;;;25.70;99.90;;;;;;5013519;28;20231;-78
2023/06/22 11:38:05;;;;;;;10.90;7.20;;;25.70;99.90;;;;;;4999199;28;20201;-78
2023/06/22 11:40:31;;;;;;;7.93;7.23;;;25.80;99.90;;;;;;5012961;28;20642;-78
2023/06/22 11:42:56;;;;;;;8.60;7.80;;;25.80;99.90;;;;;;5013565;28;20270;-78
2023/06/22 11:45:22;;;;;;;8.23;6.93;;;25.80;99.90;;;;;;5030835;28;20215;-78
2023/06/22 11:47:48;;;;;;;9.70;8.80;;;25.80;99.90;;;;;;4997218;28;20688;-78
2023/06/22 11:50:14;;;;;;;8.30;7.60;;;25.80;99.90;;;;;;5012808;28;20236;-78
2023/06/22 11:52:39;;;;;;;9.90;9.00;;;25.80;99.90;;;;;;5031269;28;20174;-77
2023/06/22 11:55:06;;;;;;;7.73;6.90;;;25.80;99.90;;;;;;4980717;28;20174;-78
2023/06/22 11:57:52;;;;;;;8.50;7.67;;;25.80;99.90;;;;;;5013348;28;20197;-78
2023/06/22 12:00:18;;;;;;;7.63;6.67;;;26.00;99.90;;;;;;4997938;28;20682;-78
2023/06/22 12:02:45;;;;;;;7.83;7.10;;;26.10;99.90;;;;;;5040308;28;20620;-78
2023/06/22 12:05:11;;;;;;;8.40;7.60;;;26.30;99.90;;;;;;5014142;28;20577;-78
2023/06/22 12:07:37;;;;;;;11.23;8.37;;;26.50;99.90;;;;;;5029359;28;20670;-78
2023/06/22 12:10:03;;;;;;;8.20;7.40;;;26.80;99.90;;;;;;5013145;28;20588;-78
2023/06/22 12:12:29;;;;;;;9.50;8.60;;;27.00;99.90;;;;;;4996442;28;20603;-78
2023/06/22 12:14:55;;;;;;;8.97;8.20;;;27.20;99.90;;;;;;5034292;28;20580;-78
2023/06/22 12:17:20;;;;;;;8.27;7.57;;;27.40;99.90;;;;;;5029520;28;20627;-78
2023/06/22 12:19:46;;;;;;;9.93;9.03;;;27.60;99.90;;;;;;5013642;28;20196;-78
2023/06/22 12:22:12;;;;;;;11.03;9.80;;;27.70;99.90;;;;;;5029697;28;20672;-77
2023/06/22 12:24:38;;;;;;;10.70;9.80;;;27.80;99.90;;;;;;5013738;28;20178;-78
2023/06/22 12:27:04;;;;;;;9.80;8.90;;;27.80;99.90;;;;;;5013353;28;20629;-79
2023/06/22 12:29:30;;;;;;;9.77;8.77;;;27.80;99.90;;;;;;5030102;28;20591;-77
2023/06/22 12:31:55;;;;;;;10.13;9.33;;;27.80;99.90;;;;;;5030893;28;20576;-77
2023/06/22 12:34:21;;;;;;;9.40;8.40;;;27.80;99.90;;;;;;5013119;28;20204;-77
2023/06/22 12:36:48;;;;;;;10.90;9.90;;;27.80;99.90;;;;;;5013178;28;20179;-77
2023/06/22 12:39:14;;;;;;;8.67;7.87;;;28.00;99.90;;;;;;5013323;28;20639;-77
2023/06/22 12:41:40;;;;;;;8.57;7.87;;;28.10;99.90;;;;;;5030909;28;20564;-77
2023/06/22 12:44:05;;;;;;;8.40;7.60;;;28.20;99.90;;;;;;5031028;28;20591;-77
2023/06/22 12:46:37;;;;;;;7.40;6.80;;;28.40;99.90;;;;;;5014225;28;20166;-78